Time,TemperatureF,DewpointF,PressureIn,WindDirection,WindDirectionDegrees,WindSpeedMPH,WindSpeedGustMPH,Humidity,HourlyPrecipIn,Conditions,Clouds,dailyrainin,SoftwareType,DateUTC
2013-06-09 00:14:00,69.5,68.0,30.06,ESE,123,0.0,0.0,96,0.00,,,0.00,weatherlink.com 1.10,2013-06-09 04:14:00,
2013-06-09 00:29:00,69.3,68.0,30.06,ESE,123,0.0,0.0,96,0.00,,,0.00,weatherlink.com 1.10,2013-06-09 04:29:00,
2013-06-09 00:44:00,69.0,68.0,30.06,ESE,123,0.0,0.0,96,0.00,,,0.00,weatherlink.com 1.10,2013-06-09 04:44:00,
2013-06-09 00:59:00,68.8,68.0,30.06,ESE,123,0.0,0.0,96,0.00,,,0.00,weatherlink.com 1.10,2013-06-09 04:59:00,
2013-06-09 01:14:00,68.6,68.0,30.05,ESE,123,0.0,0.0,97,0.00,,,0.00,weatherlink.com 1.10,2013-06-09 05:14:00,
2013-06-09 01:29:00,68.3,68.0,30.06,ESE,123,0.0,0.0,97,0.00,,,0.00,weatherlink.com 1.10,2013-06-09 05:29:00,
2013-06-09 01:44:00,68.1,67.0,30.06,ESE,123,0.0,0.0,97,0.00,,,0.00,weatherlink.com 1.10,2013-06-09 05:44:00,
2013-06-09 01:59:00,68.0,67.0,30.05,ESE,123,0.0,0.0,97,0.00,,,0.00,weatherlink.com 1.10,2013-06-09 05:59:00,
2013-06-09 02:14:00,67.9,67.0,30.05,ESE,123,0.0,0.0,97,0.00,,,0.00,weatherlink.com 1.10,2013-06-09 06:14:00,
2013-06-09 02:29:00,67.8,67.0,30.05,ESE,123,0.0,0.0,97,0.00,,,0.00,weatherlink.com 1.10,2013-06-09 06:29:00,
2013-06-09 02:44:00,67.8,67.0,30.05,ESE,123,0.0,0.0,98,0.00,,,0.00,weatherlink.com 1.10,2013-06-09 06:44:00,
2013-06-09 02:59:00,67.8,67.0,30.05,ESE,123,0.0,0.0,98,0.00,,,0.00,weatherlink.com 1.10,2013-06-09 06:59:00,
2013-06-09 03:14:00,67.7,67.0,30.05,ESE,123,0.0,0.0,98,0.00,,,0.00,weatherlink.com 1.10,2013-06-09 07:14:00,
2013-06-09 03:29:00,67.5,67.0,30.06,ESE,123,0.0,0.0,97,0.00,,,0.00,weatherlink.com 1.10,2013-06-09 07:29:00,
2013-06-09 03:44:00,67.1,66.0,30.06,ESE,123,0.0,0.0,97,0.00,,,0.00,weatherlink.com 1.10,2013-06-09 07:44:00,
2013-06-09 03:59:00,67.0,67.0,30.06,ESE,123,0.0,0.0,98,0.00,,,0.00,weatherlink.com 1.10,2013-06-09 07:59:00,
2013-06-09 04:14:00,66.8,66.0,30.06,ESE,123,0.0,0.0,98,0.00,,,0.00,weatherlink.com 1.10,2013-06-09 08:14:00,
2013-06-09 04:29:00,66.7,66.0,30.07,ESE,123,0.0,0.0,98,0.00,,,0.00,weatherlink.com 1.10,2013-06-09 08:29:00,
2013-06-09 04:44:00,66.5,66.0,30.07,ESE,123,0.0,0.0,98,0.00,,,0.00,weatherlink.com 1.10,2013-06-09 08:44:00,
2013-06-09 04:59:00,66.3,66.0,30.07,ESE,123,0.0,0.0,98,0.00,,,0.00,weatherlink.com 1.10,2013-06-09 08:59:00,
2013-06-09 05:14:00,66.1,66.0,30.08,ESE,123,0.0,0.0,98,0.00,,,0.00,weatherlink.com 1.10,2013-06-09 09:14:00,
2013-06-09 05:29:00,66.0,66.0,30.08,ESE,123,0.0,0.0,98,0.00,,,0.00,weatherlink.com 1.10,2013-06-09 09:29:00,
2013-06-09 05:44:00,65.7,65.0,30.08,ESE,123,0.0,0.0,98,0.00,,,0.00,weatherlink.com 1.10,2013-06-09 09:44:00,
2013-06-09 05:59:00,65.5,65.0,30.09,ESE,123,0.0,0.0,98,0.00,,,0.00,weatherlink.com 1.10,2013-06-09 09:59:00,
2013-06-09 06:14:00,65.3,65.0,30.09,ESE,123,0.0,0.0,98,0.00,,,0.00,weatherlink.com 1.10,2013-06-09 10:14:00,
2013-06-09 06:29:00,65.2,65.0,30.09,ESE,123,0.0,0.0,98,0.00,,,0.00,weatherlink.com 1.10,2013-06-09 10:29:00,
2013-06-09 06:44:00,65.3,65.0,30.09,ESE,123,0.0,0.0,98,0.00,,,0.00,weatherlink.com 1.10,2013-06-09 10:44:00,
2013-06-09 06:59:00,65.4,65.0,30.10,ESE,123,0.0,0.0,99,0.00,,,0.00,weatherlink.com 1.10,2013-06-09 10:59:00,
2013-06-09 07:14:00,65.6,65.0,30.11,ESE,123,0.0,0.0,99,0.00,,,0.00,weatherlink.com 1.10,2013-06-09 11:14:00,
2013-06-09 07:29:00,66.1,66.0,30.11,ESE,123,0.0,0.0,99,0.00,,,0.00,weatherlink.com 1.10,2013-06-09 11:29:00,
2013-06-09 07:44:00,66.8,67.0,30.11,ESE,123,0.0,0.0,99,0.00,,,0.00,weatherlink.com 1.10,2013-06-09 11:44:00,
2013-06-09 07:59:00,67.8,68.0,30.11,ESE,123,0.0,0.0,99,0.00,,,0.00,weatherlink.com 1.10,2013-06-09 11:59:00,
2013-06-09 08:14:00,68.6,68.0,30.12,ESE,123,0.0,0.0,99,0.00,,,0.00,weatherlink.com 1.10,2013-06-09 12:14:00,
2013-06-09 08:29:00,69.7,69.0,30.12,ESE,123,0.0,0.0,99,0.00,,,0.00,weatherlink.com 1.10,2013-06-09 12:29:00,
2013-06-09 08:44:00,70.5,70.0,30.12,ESE,123,0.0,0.0,99,0.00,,,0.00,weatherlink.com 1.10,2013-06-09 12:44:00,
2013-06-09 08:59:00,71.5,71.0,30.13,ESE,123,0.0,1.0,99,0.00,,,0.00,weatherlink.com 1.10,2013-06-09 12:59:00,
2013-06-09 09:15:00,72.5,71.0,30.12,ESE,123,0.0,1.0,96,0.00,,,0.00,weatherlink.com 1.10,2013-06-09 13:15:00,
2013-06-09 09:30:00,73.5,71.0,30.12,ESE,123,0.0,1.0,91,0.00,,,0.00,weatherlink.com 1.10,2013-06-09 13:30:00,
2013-06-09 09:45:00,74.9,71.0,30.12,ESE,123,0.0,0.0,88,0.00,,,0.00,weatherlink.com 1.10,2013-06-09 13:45:00,
2013-06-09 10:00:00,76.7,72.0,30.12,ESE,123,0.0,2.0,85,0.00,,,0.00,weatherlink.com 1.10,2013-06-09 14:00:00,
2013-06-09 10:15:00,77.9,72.0,30.11,ESE,123,0.0,3.0,81,0.00,,,0.00,weatherlink.com 1.10,2013-06-09 14:15:00,
2013-06-09 10:30:00,78.5,72.0,30.11,ESE,123,0.0,2.0,79,0.00,,,0.00,weatherlink.com 1.10,2013-06-09 14:30:00,
2013-06-09 10:45:00,78.8,72.0,30.10,ESE,122,0.0,3.0,80,0.00,,,0.00,weatherlink.com 1.10,2013-06-09 14:45:00,
2013-06-09 11:00:00,79.2,71.0,30.10,ESE,118,0.0,4.0,76,0.00,,,0.00,weatherlink.com 1.10,2013-06-09 15:00:00,
2013-06-09 11:15:00,79.9,71.0,30.10,ESE,115,0.0,2.0,75,0.00,,,0.00,weatherlink.com 1.10,2013-06-09 15:15:00,
2013-06-09 11:30:00,80.7,71.0,30.10,SE,126,1.0,3.0,72,0.00,,,0.00,weatherlink.com 1.10,2013-06-09 15:30:00,
2013-06-09 11:45:00,81.1,71.0,30.11,ESE,123,0.0,2.0,71,0.00,,,0.00,weatherlink.com 1.10,2013-06-09 15:45:00,
2013-06-09 12:00:00,82.1,71.0,30.11,ESE,123,0.0,1.0,70,0.00,,,0.00,weatherlink.com 1.10,2013-06-09 16:00:00,
2013-06-09 12:15:00,83.0,73.0,30.10,ESE,112,0.0,4.0,71,0.00,,,0.00,weatherlink.com 1.10,2013-06-09 16:15:00,
2013-06-09 12:30:00,84.3,72.0,30.10,SE,130,2.0,3.0,67,0.00,,,0.00,weatherlink.com 1.10,2013-06-09 16:30:00,
2013-06-09 12:45:00,84.7,73.0,30.09,ESE,119,0.0,3.0,67,0.00,,,0.00,weatherlink.com 1.10,2013-06-09 16:45:00,
2013-06-09 13:00:00,85.2,72.0,30.08,East,94,0.0,3.0,65,0.00,,,0.00,weatherlink.com 1.10,2013-06-09 17:00:00,
2013-06-09 13:15:00,85.2,74.0,30.07,ESE,111,0.0,4.0,69,0.00,,,0.00,weatherlink.com 1.10,2013-06-09 17:15:00,
2013-06-09 13:30:00,86.5,73.0,30.07,SSE,148,1.0,3.0,64,0.00,,,0.00,weatherlink.com 1.10,2013-06-09 17:30:00,
2013-06-09 13:45:00,87.5,71.0,30.06,East,82,2.0,3.0,59,0.00,,,0.00,weatherlink.com 1.10,2013-06-09 17:45:00,
2013-06-09 14:00:00,86.5,72.0,30.06,ESE,117,1.0,5.0,63,0.00,,,0.00,weatherlink.com 1.10,2013-06-09 18:00:00,
2013-06-09 14:15:00,85.7,73.0,30.05,SE,132,1.0,4.0,66,0.00,,,0.00,weatherlink.com 1.10,2013-06-09 18:15:00,
2013-06-09 14:30:00,84.5,73.0,30.05,ESE,109,1.0,4.0,68,0.00,,,0.00,weatherlink.com 1.10,2013-06-09 18:30:00,
2013-06-09 14:45:00,83.6,72.0,30.05,East,99,0.0,4.0,69,0.00,,,0.00,weatherlink.com 1.10,2013-06-09 18:45:00,
2013-06-09 15:00:00,82.7,74.0,30.04,SSE,165,0.0,4.0,75,0.00,,,0.00,weatherlink.com 1.10,2013-06-09 19:00:00,
2013-06-09 15:15:00,81.6,75.0,30.04,SE,126,1.0,2.0,80,0.00,,,0.00,weatherlink.com 1.10,2013-06-09 19:15:00,
2013-06-09 15:30:00,83.2,74.0,30.04,ESE,112,4.0,9.0,73,0.00,,,0.00,weatherlink.com 1.10,2013-06-09 19:30:00,
2013-06-09 15:45:00,81.8,72.0,30.04,East,94,0.0,11.0,72,0.00,,,0.00,weatherlink.com 1.10,2013-06-09 19:45:00,
2013-06-09 16:00:00,80.3,72.0,30.04,East,80,2.0,5.0,76,0.00,,,0.00,weatherlink.com 1.10,2013-06-09 20:00:00,
2013-06-09 16:15:00,78.7,72.0,30.04,ESE,105,0.0,7.0,80,0.00,,,0.00,weatherlink.com 1.10,2013-06-09 20:15:00,
2013-06-09 16:31:00,77.6,72.0,30.04,ESE,112,1.0,4.0,82,0.00,,,0.00,weatherlink.com 1.10,2013-06-09 20:31:00,
2013-06-09 16:46:00,76.9,72.0,30.05,ESE,103,0.0,3.0,84,0.00,,,0.00,weatherlink.com 1.10,2013-06-09 20:46:00,
2013-06-09 17:01:00,76.8,71.0,30.05,ESE,118,0.0,3.0,83,0.00,,,0.00,weatherlink.com 1.10,2013-06-09 21:01:00,
2013-06-09 17:16:00,76.5,71.0,30.05,ESE,115,1.0,3.0,83,0.00,,,0.00,weatherlink.com 1.10,2013-06-09 21:16:00,
2013-06-09 17:31:00,76.6,71.0,30.05,ESE,114,0.0,3.0,82,0.00,,,0.00,weatherlink.com 1.10,2013-06-09 21:31:00,
2013-06-09 17:46:00,76.6,70.0,30.05,East,91,1.0,2.0,81,0.00,,,0.00,weatherlink.com 1.10,2013-06-09 21:46:00,
2013-06-09 18:01:00,76.0,70.0,30.06,SE,135,0.0,3.0,82,0.00,,,0.00,weatherlink.com 1.10,2013-06-09 22:01:00,
2013-06-09 18:16:00,75.2,71.0,30.06,ESE,116,1.0,4.0,85,0.00,,,0.00,weatherlink.com 1.10,2013-06-09 22:16:00,
2013-06-09 18:31:00,74.6,71.0,30.08,SSE,153,1.0,3.0,87,0.00,,,0.00,weatherlink.com 1.10,2013-06-09 22:31:00,
2013-06-09 18:46:00,73.3,71.0,30.07,ESE,113,0.0,5.0,91,0.00,,,0.00,weatherlink.com 1.10,2013-06-09 22:46:00,
2013-06-09 19:01:00,72.5,70.0,30.05,SSE,162,0.0,2.0,93,0.00,,,0.00,weatherlink.com 1.10,2013-06-09 23:01:00,
2013-06-09 19:16:00,72.3,71.0,30.05,SSE,162,0.0,0.0,94,0.00,,,0.00,weatherlink.com 1.10,2013-06-09 23:16:00,
2013-06-09 19:31:00,72.2,71.0,30.06,SSE,162,0.0,1.0,95,0.00,,,0.00,weatherlink.com 1.10,2013-06-09 23:31:00,
2013-06-09 19:46:00,72.2,71.0,30.05,SSE,162,0.0,1.0,95,0.00,,,0.00,weatherlink.com 1.10,2013-06-09 23:46:00,
2013-06-09 20:01:00,72.1,71.0,30.06,SSE,162,0.0,1.0,96,0.00,,,0.00,weatherlink.com 1.10,2013-06-10 00:01:00,
2013-06-09 20:16:00,71.9,71.0,30.06,SSE,162,0.0,1.0,96,0.00,,,0.00,weatherlink.com 1.10,2013-06-10 00:16:00,
2013-06-09 20:31:00,71.6,70.0,30.05,SSE,162,0.0,0.0,96,0.00,,,0.00,weatherlink.com 1.10,2013-06-10 00:31:00,
2013-06-09 20:46:00,71.6,70.0,30.05,SSE,162,0.0,0.0,96,0.00,,,0.00,weatherlink.com 1.10,2013-06-10 00:46:00,
2013-06-09 21:01:00,71.5,71.0,30.06,SSE,162,0.0,0.0,97,0.00,,,0.00,weatherlink.com 1.10,2013-06-10 01:01:00,
2013-06-09 21:16:00,71.4,71.0,30.06,SSE,162,0.0,0.0,97,0.00,,,0.00,weatherlink.com 1.10,2013-06-10 01:16:00,
2013-06-09 21:31:00,71.3,70.0,30.06,SSE,162,0.0,0.0,97,0.00,,,0.00,weatherlink.com 1.10,2013-06-10 01:31:00,
2013-06-09 21:46:00,71.3,70.0,30.07,SSE,162,0.0,1.0,97,0.00,,,0.00,weatherlink.com 1.10,2013-06-10 01:46:00,
2013-06-09 22:01:00,71.3,70.0,30.07,SSE,162,0.0,1.0,97,0.00,,,0.00,weatherlink.com 1.10,2013-06-10 02:01:00,
2013-06-09 22:16:00,71.3,70.0,30.07,SSE,162,0.0,0.0,97,0.00,,,0.00,weatherlink.com 1.10,2013-06-10 02:16:00,
2013-06-09 22:31:00,71.2,70.0,30.07,SSE,162,0.0,1.0,97,0.00,,,0.00,weatherlink.com 1.10,2013-06-10 02:31:00,
2013-06-09 22:46:00,71.2,70.0,30.07,SSE,162,0.0,1.0,97,0.00,,,0.00,weatherlink.com 1.10,2013-06-10 02:46:00,
2013-06-09 23:01:00,71.1,70.0,30.07,SSE,162,0.0,0.0,97,0.00,,,0.00,weatherlink.com 1.10,2013-06-10 03:01:00,
2013-06-09 23:16:00,71.0,70.0,30.07,SSE,162,0.0,0.0,97,0.00,,,0.00,weatherlink.com 1.10,2013-06-10 03:16:00,
2013-06-09 23:31:00,71.0,70.0,30.07,SSE,163,0.0,1.0,97,0.00,,,0.00,weatherlink.com 1.10,2013-06-10 03:31:00,
2013-06-09 23:46:00,71.0,70.0,30.07,SSE,162,0.0,0.0,97,0.00,,,0.00,weatherlink.com 1.10,2013-06-10 03:46:00,